sensor_id;sensor_type;location;lat;lon;timestamp;P1;durP1;ratioP1;P2;durP2;ratioP2
63959;SDS011;50136;51.374;0.096;2023-05-17T00:07:24;15.25;;;5.30;;
63959;SDS011;50136;51.374;0.096;2023-05-17T00:17:28;12.25;;;6.15;;
63959;SDS011;50136;51.374;0.096;2023-05-17T00:27:30;12.25;;;5.80;;
63959;SDS011;50136;51.374;0.096;2023-05-17T00:37:33;10.77;;;6.00;;
63959;SDS011;50136;51.374;0.096;2023-05-17T00:47:35;14.35;;;7.15;;
63959;SDS011;50136;51.374;0.096;2023-05-17T00:57:39;11.57;;;5.78;;
63959;SDS011;50136;51.374;0.096;2023-05-17T01:07:41;9.73;;;5.88;;
63959;SDS011;50136;51.374;0.096;2023-05-17T01:17:47;12.35;;;6.43;;
63959;SDS011;50136;51.374;0.096;2023-05-17T01:27:56;12.93;;;6.40;;
63959;SDS011;50136;51.374;0.096;2023-05-17T01:38:00;12.18;;;6.38;;
63959;SDS011;50136;51.374;0.096;2023-05-17T01:48:05;16.17;;;6.35;;
63959;SDS011;50136;51.374;0.096;2023-05-17T01:58:15;12.63;;;6.38;;
63959;SDS011;50136;51.374;0.096;2023-05-17T02:08:21;11.13;;;6.60;;
63959;SDS011;50136;51.374;0.096;2023-05-17T02:18:23;11.02;;;5.95;;
63959;SDS011;50136;51.374;0.096;2023-05-17T02:28:27;20.98;;;7.57;;
63959;SDS011;50136;51.374;0.096;2023-05-17T02:38:29;15.10;;;7.07;;
63959;SDS011;50136;51.374;0.096;2023-05-17T02:48:32;14.27;;;5.80;;
63959;SDS011;50136;51.374;0.096;2023-05-17T02:58:34;15.00;;;5.68;;
63959;SDS011;50136;51.374;0.096;2023-05-17T03:08:38;12.23;;;6.75;;
63959;SDS011;50136;51.374;0.096;2023-05-17T03:18:40;10.13;;;5.68;;
63959;SDS011;50136;51.374;0.096;2023-05-17T03:28:43;15.35;;;6.47;;
63959;SDS011;50136;51.374;0.096;2023-05-17T03:38:46;13.25;;;6.95;;
63959;SDS011;50136;51.374;0.096;2023-05-17T03:48:49;10.27;;;5.40;;
63959;SDS011;50136;51.374;0.096;2023-05-17T03:58:51;10.98;;;5.13;;
63959;SDS011;50136;51.374;0.096;2023-05-17T04:08:55;15.40;;;5.68;;
63959;SDS011;50136;51.374;0.096;2023-05-17T04:18:58;9.00;;;4.88;;
63959;SDS011;50136;51.374;0.096;2023-05-17T04:29:04;17.95;;;7.15;;
63959;SDS011;50136;51.374;0.096;2023-05-17T04:39:06;12.75;;;5.18;;
63959;SDS011;50136;51.374;0.096;2023-05-17T04:49:10;11.95;;;5.80;;
63959;SDS011;50136;51.374;0.096;2023-05-17T04:59:12;16.55;;;5.45;;
63959;SDS011;50136;51.374;0.096;2023-05-17T05:09:15;14.75;;;5.90;;
63959;SDS011;50136;51.374;0.096;2023-05-17T05:19:17;9.02;;;5.38;;
63959;SDS011;50136;51.374;0.096;2023-05-17T05:29:21;10.73;;;5.93;;
63959;SDS011;50136;51.374;0.096;2023-05-17T05:39:23;16.70;;;6.05;;
63959;SDS011;50136;51.374;0.096;2023-05-17T05:49:26;16.05;;;6.00;;
63959;SDS011;50136;51.374;0.096;2023-05-17T05:59:28;25.05;;;6.60;;
63959;SDS011;50136;51.374;0.096;2023-05-17T06:09:32;12.50;;;6.00;;
63959;SDS011;50136;51.374;0.096;2023-05-17T06:19:34;14.77;;;7.15;;
63959;SDS011;50136;51.374;0.096;2023-05-17T06:29:37;24.60;;;7.70;;
63959;SDS011;50136;51.374;0.096;2023-05-17T06:39:39;20.52;;;7.25;;
63959;SDS011;50136;51.374;0.096;2023-05-17T06:49:46;12.55;;;6.20;;
63959;SDS011;50136;51.374;0.096;2023-05-17T06:59:48;15.63;;;6.38;;
63959;SDS011;50136;51.374;0.096;2023-05-17T07:09:52;17.77;;;6.78;;
63959;SDS011;50136;51.374;0.096;2023-05-17T07:19:54;15.30;;;6.65;;
63959;SDS011;50136;51.374;0.096;2023-05-17T07:29:57;15.88;;;6.53;;
63959;SDS011;50136;51.374;0.096;2023-05-17T07:39:59;19.77;;;7.53;;
63959;SDS011;50136;51.374;0.096;2023-05-17T07:50:03;19.40;;;7.38;;
63959;SDS011;50136;51.374;0.096;2023-05-17T08:00:06;15.90;;;7.50;;
63959;SDS011;50136;51.374;0.096;2023-05-17T08:10:11;15.23;;;6.57;;
63959;SDS011;50136;51.374;0.096;2023-05-17T08:20:13;12.75;;;7.13;;
63959;SDS011;50136;51.374;0.096;2023-05-17T08:30:16;13.55;;;6.80;;
63959;SDS011;50136;51.374;0.096;2023-05-17T08:40:29;13.48;;;6.95;;
63959;SDS011;50136;51.374;0.096;2023-05-17T08:50:33;16.45;;;7.32;;
63959;SDS011;50136;51.374;0.096;2023-05-17T09:00:35;8.88;;;5.72;;
63959;SDS011;50136;51.374;0.096;2023-05-17T09:10:38;12.60;;;6.15;;
63959;SDS011;50136;51.374;0.096;2023-05-17T09:20:40;16.90;;;7.78;;
63959;SDS011;50136;51.374;0.096;2023-05-17T09:30:46;17.98;;;7.35;;
63959;SDS011;50136;51.374;0.096;2023-05-17T09:50:52;12.05;;;6.43;;
63959;SDS011;50136;51.374;0.096;2023-05-17T10:00:56;9.25;;;5.45;;
63959;SDS011;50136;51.374;0.096;2023-05-17T10:11:02;14.35;;;5.50;;
63959;SDS011;50136;51.374;0.096;2023-05-17T10:21:08;10.48;;;5.53;;
63959;SDS011;50136;51.374;0.096;2023-05-17T10:31:12;10.20;;;5.55;;
63959;SDS011;50136;51.374;0.096;2023-05-17T10:41:15;8.40;;;5.25;;
63959;SDS011;50136;51.374;0.096;2023-05-17T10:51:23;8.63;;;5.43;;
63959;SDS011;50136;51.374;0.096;2023-05-17T11:01:47;7.60;;;5.23;;
63959;SDS011;50136;51.374;0.096;2023-05-17T11:12:04;12.83;;;5.17;;
63959;SDS011;50136;51.374;0.096;2023-05-17T11:22:09;11.25;;;5.35;;
63959;SDS011;50136;51.374;0.096;2023-05-17T11:32:12;11.52;;;5.88;;
63959;SDS011;50136;51.374;0.096;2023-05-17T11:42:22;9.57;;;4.57;;
63959;SDS011;50136;51.374;0.096;2023-05-17T11:52:27;8.32;;;5.78;;
63959;SDS011;50136;51.374;0.096;2023-05-17T12:13:49;10.07;;;4.63;;
63959;SDS011;50136;51.374;0.096;2023-05-17T12:23:51;10.77;;;5.25;;
63959;SDS011;50136;51.374;0.096;2023-05-17T12:33:56;7.38;;;4.53;;
63959;SDS011;50136;51.374;0.096;2023-05-17T12:43:59;13.55;;;5.85;;
63959;SDS011;50136;51.374;0.096;2023-05-17T12:54:25;17.33;;;6.55;;
63959;SDS011;50136;51.374;0.096;2023-05-17T13:04:28;14.35;;;5.38;;
63959;SDS011;50136;51.374;0.096;2023-05-17T13:14:34;13.77;;;6.28;;
63959;SDS011;50136;51.374;0.096;2023-05-17T13:24:37;10.38;;;4.90;;
63959;SDS011;50136;51.374;0.096;2023-05-17T13:34:41;9.60;;;4.82;;
63959;SDS011;50136;51.374;0.096;2023-05-17T13:44:43;10.68;;;4.82;;
63959;SDS011;50136;51.374;0.096;2023-05-17T13:54:46;9.18;;;4.95;;
63959;SDS011;50136;51.374;0.096;2023-05-17T14:04:48;12.68;;;5.60;;
63959;SDS011;50136;51.374;0.096;2023-05-17T14:14:52;10.25;;;4.82;;
63959;SDS011;50136;51.374;0.096;2023-05-17T14:24:54;11.32;;;5.97;;
63959;SDS011;50136;51.374;0.096;2023-05-17T14:34:57;7.25;;;4.50;;
63959;SDS011;50136;51.374;0.096;2023-05-17T14:44:59;9.25;;;4.63;;
63959;SDS011;50136;51.374;0.096;2023-05-17T14:55:03;12.07;;;5.35;;
63959;SDS011;50136;51.374;0.096;2023-05-17T15:05:06;18.08;;;6.57;;
63959;SDS011;50136;51.374;0.096;2023-05-17T15:15:10;11.38;;;5.88;;
63959;SDS011;50136;51.374;0.096;2023-05-17T15:25:12;15.70;;;7.50;;
63959;SDS011;50136;51.374;0.096;2023-05-17T15:35:16;19.63;;;10.07;;
63959;SDS011;50136;51.374;0.096;2023-05-17T15:45:18;17.45;;;7.03;;
63959;SDS011;50136;51.374;0.096;2023-05-17T15:55:22;13.63;;;6.50;;
63959;SDS011;50136;51.374;0.096;2023-05-17T16:05:24;22.58;;;8.48;;
63959;SDS011;50136;51.374;0.096;2023-05-17T16:15:27;16.08;;;7.75;;
63959;SDS011;50136;51.374;0.096;2023-05-17T16:25:30;20.27;;;8.00;;
63959;SDS011;50136;51.374;0.096;2023-05-17T16:35:33;15.02;;;8.55;;
63959;SDS011;50136;51.374;0.096;2023-05-17T16:45:35;16.05;;;7.80;;
63959;SDS011;50136;51.374;0.096;2023-05-17T16:55:39;16.50;;;7.43;;
63959;SDS011;50136;51.374;0.096;2023-05-17T17:05:41;16.15;;;7.28;;
63959;SDS011;50136;51.374;0.096;2023-05-17T17:15:44;24.98;;;8.88;;
63959;SDS011;50136;51.374;0.096;2023-05-17T17:25:46;25.00;;;9.35;;
63959;SDS011;50136;51.374;0.096;2023-05-17T17:35:49;20.98;;;7.47;;
63959;SDS011;50136;51.374;0.096;2023-05-17T17:45:51;20.75;;;7.55;;
63959;SDS011;50136;51.374;0.096;2023-05-17T17:55:55;20.38;;;7.25;;
63959;SDS011;50136;51.374;0.096;2023-05-17T18:05:57;13.23;;;6.00;;
63959;SDS011;50136;51.374;0.096;2023-05-17T18:16:00;16.25;;;5.97;;
63959;SDS011;50136;51.374;0.096;2023-05-17T18:26:02;20.75;;;6.07;;
63959;SDS011;50136;51.374;0.096;2023-05-17T18:36:06;25.38;;;9.20;;
63959;SDS011;50136;51.374;0.096;2023-05-17T18:46:08;18.27;;;6.95;;
63959;SDS011;50136;51.374;0.096;2023-05-17T18:56:11;15.55;;;6.45;;
63959;SDS011;50136;51.374;0.096;2023-05-17T19:06:13;19.83;;;5.55;;
63959;SDS011;50136;51.374;0.096;2023-05-17T19:16:17;18.67;;;5.75;;
63959;SDS011;50136;51.374;0.096;2023-05-17T19:26:19;24.55;;;6.93;;
63959;SDS011;50136;51.374;0.096;2023-05-17T19:36:22;17.55;;;5.80;;
63959;SDS011;50136;51.374;0.096;2023-05-17T19:46:24;18.45;;;5.25;;
63959;SDS011;50136;51.374;0.096;2023-05-17T19:56:28;17.70;;;4.82;;
63959;SDS011;50136;51.374;0.096;2023-05-17T20:06:30;12.40;;;4.43;;
63959;SDS011;50136;51.374;0.096;2023-05-17T20:16:33;21.40;;;6.38;;
63959;SDS011;50136;51.374;0.096;2023-05-17T20:26:35;17.33;;;5.43;;
63959;SDS011;50136;51.374;0.096;2023-05-17T20:36:39;28.00;;;7.03;;
63959;SDS011;50136;51.374;0.096;2023-05-17T20:46:41;23.13;;;5.05;;
63959;SDS011;50136;51.374;0.096;2023-05-17T20:56:44;25.65;;;5.03;;
63959;SDS011;50136;51.374;0.096;2023-05-17T21:06:46;19.00;;;5.43;;
63959;SDS011;50136;51.374;0.096;2023-05-17T21:16:50;16.65;;;6.32;;
63959;SDS011;50136;51.374;0.096;2023-05-17T21:26:52;20.90;;;6.40;;
63959;SDS011;50136;51.374;0.096;2023-05-17T21:36:55;14.77;;;5.45;;
63959;SDS011;50136;51.374;0.096;2023-05-17T21:46:57;10.38;;;3.90;;
63959;SDS011;50136;51.374;0.096;2023-05-17T21:57:01;17.50;;;4.90;;
63959;SDS011;50136;51.374;0.096;2023-05-17T22:07:03;11.27;;;3.70;;
63959;SDS011;50136;51.374;0.096;2023-05-17T22:17:06;7.85;;;3.20;;
63959;SDS011;50136;51.374;0.096;2023-05-17T22:27:08;14.48;;;2.92;;
63959;SDS011;50136;51.374;0.096;2023-05-17T22:37:12;14.05;;;3.58;;
63959;SDS011;50136;51.374;0.096;2023-05-17T22:47:14;13.02;;;4.25;;
63959;SDS011;50136;51.374;0.096;2023-05-17T22:57:17;14.52;;;3.17;;
63959;SDS011;50136;51.374;0.096;2023-05-17T23:07:19;10.77;;;3.50;;
63959;SDS011;50136;51.374;0.096;2023-05-17T23:17:23;13.43;;;3.45;;
63959;SDS011;50136;51.374;0.096;2023-05-17T23:27:25;18.17;;;4.30;;
63959;SDS011;50136;51.374;0.096;2023-05-17T23:37:28;9.52;;;3.08;;
63959;SDS011;50136;51.374;0.096;2023-05-17T23:47:30;11.43;;;2.40;;
63959;SDS011;50136;51.374;0.096;2023-05-17T23:57:34;12.40;;;3.45;;
